createdAt,value
2022-08-22T00:01:33.809Z,99.90
2022-08-22T00:02:55.438Z,99.90
2022-08-22T00:04:10.900Z,99.90
2022-08-22T00:06:49.237Z,99.90
2022-08-22T00:09:30.300Z,99.90
2022-08-22T00:12:09.473Z,99.90
2022-08-22T00:14:42.603Z,99.90
2022-08-22T00:17:29.245Z,99.90
2022-08-22T00:20:05.652Z,99.90
2022-08-22T00:22:40.815Z,99.90
2022-08-22T00:25:25.739Z,99.90
2022-08-22T00:28:00.365Z,99.90
2022-08-22T00:30:31.343Z,99.90
2022-08-22T00:33:06.349Z,99.90
2022-08-22T00:35:41.689Z,99.90
2022-08-22T00:38:18.656Z,99.90
2022-08-22T00:41:03.536Z,99.90
2022-08-22T00:44:04.516Z,99.90
2022-08-22T00:46:49.284Z,99.90
2022-08-22T00:49:35.296Z,99.90
2022-08-22T00:52:36.973Z,99.90
2022-08-22T00:55:28.146Z,99.90
2022-08-22T00:58:30.596Z,99.90
2022-08-22T01:01:06.864Z,99.90
2022-08-22T01:04:01.342Z,99.90
2022-08-22T01:06:45.452Z,99.90
2022-08-22T01:09:28.003Z,99.90
2022-08-22T01:12:16.873Z,99.90
2022-08-22T01:14:53.099Z,99.90
2022-08-22T01:17:53.797Z,99.90
2022-08-22T01:20:55.407Z,99.90
2022-08-22T01:23:56.264Z,99.90
2022-08-22T01:26:54.038Z,99.90
2022-08-22T01:30:01.163Z,99.90
2022-08-22T01:33:07.311Z,99.90
2022-08-22T01:36:14.029Z,99.90
2022-08-22T01:39:17.290Z,99.90
2022-08-22T01:42:15.250Z,99.90
2022-08-22T01:45:13.369Z,99.90
2022-08-22T01:47:47.588Z,99.90
2022-08-22T01:50:23.560Z,99.90
2022-08-22T01:52:59.860Z,99.90
2022-08-22T01:55:35.751Z,99.90
2022-08-22T01:58:19.155Z,99.90
2022-08-22T02:01:04.829Z,99.90
2022-08-22T02:03:38.388Z,99.90
2022-08-22T02:06:10.742Z,99.90
2022-08-22T02:08:49.916Z,99.90
2022-08-22T02:11:38.327Z,99.90
2022-08-22T02:14:18.326Z,99.90
2022-08-22T02:16:52.576Z,99.90
2022-08-22T02:19:30.576Z,99.90
2022-08-22T02:22:04.571Z,99.90
2022-08-22T02:24:47.349Z,99.90
2022-08-22T02:27:31.600Z,99.90
2022-08-22T02:30:06.134Z,99.90
2022-08-22T02:32:43.719Z,99.90
2022-08-22T02:35:22.080Z,99.90
2022-08-22T02:37:59.800Z,99.90
2022-08-22T02:40:35.201Z,99.90
2022-08-22T02:43:13.654Z,99.90
2022-08-22T02:45:49.611Z,99.90
2022-08-22T02:48:40.215Z,99.90
2022-08-22T02:51:17.887Z,99.90
2022-08-22T02:53:54.359Z,99.90
2022-08-22T02:56:31.580Z,99.90
2022-08-22T02:59:17.084Z,99.90
2022-08-22T03:01:48.558Z,99.90
2022-08-22T03:04:24.526Z,99.90
2022-08-22T03:07:12.428Z,99.90
2022-08-22T03:09:47.061Z,99.90
2022-08-22T03:12:22.973Z,99.90
2022-08-22T03:15:01.543Z,99.90
2022-08-22T03:17:33.708Z,99.90
2022-08-22T03:20:08.064Z,99.90
2022-08-22T03:22:45.672Z,99.90
2022-08-22T03:25:23.195Z,99.90
2022-08-22T03:27:56.194Z,99.90
2022-08-22T03:30:38.890Z,99.90
2022-08-22T03:33:19.439Z,99.90
2022-08-22T03:36:00.763Z,99.90
2022-08-22T03:38:39.827Z,99.90
2022-08-22T03:41:28.027Z,99.90
2022-08-22T03:44:20.304Z,99.90
2022-08-22T03:47:16.190Z,99.90
2022-08-22T03:50:19.960Z,99.90
2022-08-22T03:53:32.208Z,99.90
2022-08-22T03:56:30.427Z,99.90
2022-08-22T03:59:40.714Z,99.90
2022-08-22T04:02:48.438Z,99.90
2022-08-22T04:05:46.950Z,99.90
2022-08-22T04:08:44.775Z,99.90
2022-08-22T04:12:08.841Z,99.90
2022-08-22T04:15:02.855Z,99.90
2022-08-22T04:18:03.561Z,99.90
2022-08-22T04:21:15.308Z,99.90
2022-08-22T04:24:14.884Z,99.90
2022-08-22T04:26:50.130Z,99.90
2022-08-22T04:29:24.452Z,99.90
2022-08-22T04:32:04.152Z,99.90
2022-08-22T04:34:39.867Z,99.90
2022-08-22T04:37:15.766Z,99.90
2022-08-22T04:39:49.447Z,99.90
2022-08-22T04:42:32.650Z,99.90
2022-08-22T04:45:06.999Z,99.90
2022-08-22T04:47:40.125Z,99.90
2022-08-22T04:50:18.678Z,99.90
2022-08-22T04:53:14.454Z,99.90
2022-08-22T04:55:52.976Z,99.90
2022-08-22T04:58:34.140Z,99.90
2022-08-22T05:01:10.517Z,99.90
2022-08-22T05:03:44.974Z,99.90
2022-08-22T05:06:15.664Z,99.90
2022-08-22T05:08:49.836Z,99.90
2022-08-22T05:11:24.899Z,99.90
2022-08-22T05:13:55.368Z,99.90
2022-08-22T05:16:37.861Z,99.90
2022-08-22T05:19:14.338Z,99.90
2022-08-22T05:21:45.437Z,99.90
2022-08-22T05:24:22.201Z,99.90
2022-08-22T05:26:54.530Z,99.90
2022-08-22T05:29:27.464Z,99.90
2022-08-22T05:32:00.206Z,99.90
2022-08-22T05:34:39.294Z,99.90
2022-08-22T05:37:13.060Z,99.90
2022-08-22T05:39:47.853Z,99.90
2022-08-22T05:42:21.654Z,99.90
2022-08-22T05:44:50.328Z,99.90
2022-08-22T05:47:23.667Z,99.90
2022-08-22T05:49:59.996Z,99.90
2022-08-22T05:52:40.970Z,99.90
2022-08-22T05:55:22.682Z,99.90
2022-08-22T05:57:58.675Z,99.90
2022-08-22T06:00:33.540Z,99.90
2022-08-22T06:03:14.465Z,99.90
2022-08-22T06:05:47.762Z,99.90
2022-08-22T06:08:23.363Z,99.90
2022-08-22T06:10:56.144Z,99.90
2022-08-22T06:13:33.155Z,99.90
2022-08-22T06:16:09.463Z,99.90
2022-08-22T06:18:40.325Z,99.90
2022-08-22T06:21:11.751Z,99.90
2022-08-22T06:23:44.723Z,99.90
2022-08-22T06:26:20.421Z,99.90
2022-08-22T06:28:54.755Z,99.90
2022-08-22T06:31:27.033Z,99.90
2022-08-22T06:33:59.957Z,99.90
2022-08-22T06:36:31.669Z,99.90
2022-08-22T06:39:16.861Z,99.90
2022-08-22T06:41:51.985Z,99.90
2022-08-22T06:44:25.164Z,99.90
2022-08-22T06:46:57.226Z,99.90
2022-08-22T06:49:27.448Z,99.90
2022-08-22T06:52:01.146Z,99.90
2022-08-22T06:54:36.221Z,99.90
2022-08-22T06:57:07.708Z,99.90
2022-08-22T06:59:39.823Z,99.90
2022-08-22T07:02:17.571Z,99.90
2022-08-22T07:04:49.750Z,99.90
2022-08-22T07:07:20.591Z,99.90
2022-08-22T07:09:55.352Z,99.90
2022-08-22T07:12:27.888Z,99.90
2022-08-22T07:15:00.839Z,99.90
2022-08-22T07:17:31.035Z,99.90
2022-08-22T07:20:05.702Z,99.90
2022-08-22T07:22:36.607Z,99.90
2022-08-22T07:25:10.970Z,99.90
2022-08-22T07:27:55.405Z,99.90
2022-08-22T07:30:28.563Z,99.90
2022-08-22T07:33:25.804Z,99.90
2022-08-22T07:35:55.135Z,99.90
2022-08-22T07:38:34.806Z,99.90
2022-08-22T07:41:11.082Z,99.90
2022-08-22T07:43:46.231Z,99.90
2022-08-22T07:46:26.941Z,99.90
2022-08-22T07:49:09.212Z,99.90
2022-08-22T07:51:43.408Z,99.90
2022-08-22T07:54:14.998Z,99.90
2022-08-22T07:56:46.842Z,99.90
2022-08-22T07:59:19.986Z,99.90
2022-08-22T08:01:52.197Z,99.90
2022-08-22T08:04:24.686Z,99.90
2022-08-22T08:06:56.001Z,99.90
2022-08-22T08:09:26.037Z,99.90
2022-08-22T08:11:55.246Z,99.90
2022-08-22T08:14:27.074Z,99.90
2022-08-22T08:17:02.693Z,99.90
2022-08-22T08:19:33.399Z,99.90
2022-08-22T08:22:02.155Z,99.90
2022-08-22T08:24:41.357Z,99.90
2022-08-22T08:27:33.412Z,99.90
2022-08-22T08:30:15.592Z,99.90
2022-08-22T08:32:48.826Z,99.90
2022-08-22T08:35:22.973Z,99.90
2022-08-22T08:37:57.916Z,98.20
2022-08-22T08:40:49.670Z,97.50
2022-08-22T08:43:29.955Z,98.20
2022-08-22T08:46:34.582Z,99.60
2022-08-22T08:49:24.734Z,97.20
2022-08-22T08:52:15.584Z,97.20
2022-08-22T08:54:55.785Z,96.60
2022-08-22T08:57:42.218Z,94.60
2022-08-22T09:00:15.906Z,94.40
2022-08-22T09:02:57.031Z,92.90
2022-08-22T09:05:55.708Z,90.80
2022-08-22T09:08:55.623Z,90.60
2022-08-22T09:11:47.979Z,88.70
2022-08-22T09:14:38.158Z,87.50
2022-08-22T09:17:28.405Z,81.10
2022-08-22T09:20:26.211Z,88.00
2022-08-22T09:23:43.789Z,88.00
2022-08-22T09:26:18.759Z,83.70
2022-08-22T09:28:55.232Z,78.00
2022-08-22T09:31:51.497Z,82.10
2022-08-22T09:34:25.659Z,78.00
2022-08-22T09:37:16.240Z,77.40
2022-08-22T09:39:57.403Z,72.30
2022-08-22T09:42:31.886Z,73.00
2022-08-22T09:45:39.299Z,71.20
2022-08-22T09:48:17.958Z,62.50
2022-08-22T09:50:58.817Z,62.60
2022-08-22T09:53:56.717Z,66.20
2022-08-22T09:56:51.215Z,62.20
2022-08-22T09:59:26.399Z,62.60
2022-08-22T10:02:00.453Z,56.90
2022-08-22T10:04:46.580Z,54.30
2022-08-22T10:07:35.434Z,52.30
2022-08-22T10:10:17.058Z,52.60
2022-08-22T10:12:56.372Z,55.80
2022-08-22T10:15:36.256Z,51.80
2022-08-22T10:18:19.139Z,50.40
2022-08-22T10:20:58.998Z,51.80
2022-08-22T10:23:33.180Z,51.50
2022-08-22T10:26:22.874Z,46.80
2022-08-22T10:28:58.265Z,48.10
2022-08-22T10:31:41.157Z,47.80
2022-08-22T10:34:29.686Z,46.80
2022-08-22T10:37:10.398Z,49.70
2022-08-22T10:39:45.619Z,47.10
2022-08-22T10:42:27.839Z,44.20
2022-08-22T10:45:32.130Z,45.50
2022-08-22T10:48:35.691Z,45.90
2022-08-22T10:51:25.401Z,43.20
2022-08-22T10:54:05.514Z,41.80
2022-08-22T10:56:43.836Z,44.80
2022-08-22T10:59:27.492Z,42.70
2022-08-22T11:02:11.807Z,44.60
2022-08-22T11:05:02.986Z,45.30
2022-08-22T11:07:50.228Z,40.90
2022-08-22T11:10:34.835Z,45.10
2022-08-22T11:13:17.051Z,44.20
2022-08-22T11:15:59.390Z,47.50
2022-08-22T11:18:51.431Z,45.20
2022-08-22T11:21:42.260Z,50.00
2022-08-22T11:24:34.800Z,56.90
2022-08-22T11:27:14.565Z,56.10
2022-08-22T11:29:52.866Z,52.60
2022-08-22T11:32:30.245Z,53.80
2022-08-22T11:35:09.074Z,52.20
2022-08-22T11:37:48.570Z,50.20
2022-08-22T11:40:31.611Z,49.70
2022-08-22T11:43:22.596Z,52.60
2022-08-22T11:45:55.670Z,51.70
2022-08-22T11:48:31.191Z,52.60
2022-08-22T11:51:13.409Z,50.30
2022-08-22T11:53:48.045Z,49.20
2022-08-22T11:56:24.949Z,47.20
2022-08-22T11:59:00.258Z,47.30
2022-08-22T12:01:36.769Z,48.90
2022-08-22T12:04:13.079Z,52.50
2022-08-22T12:07:00.320Z,51.40
2022-08-22T12:09:44.449Z,48.80
2022-08-22T12:12:40.285Z,54.60
2022-08-22T12:15:22.655Z,51.90
2022-08-22T12:18:21.200Z,53.60
2022-08-22T12:21:14.552Z,50.40
2022-08-22T12:24:06.292Z,55.00
2022-08-22T12:26:48.184Z,54.80
2022-08-22T12:29:34.011Z,54.40
2022-08-22T12:32:43.920Z,60.50
2022-08-22T12:35:29.779Z,58.80
2022-08-22T12:38:28.121Z,62.20
2022-08-22T12:41:35.541Z,56.60
2022-08-22T12:44:19.383Z,53.40
2022-08-22T12:47:07.477Z,55.40
2022-08-22T12:49:53.209Z,54.60
2022-08-22T12:52:36.766Z,50.90
2022-08-22T12:55:25.056Z,56.30
2022-08-22T12:58:03.672Z,58.00
2022-08-22T13:00:35.662Z,58.90
2022-08-22T13:03:09.552Z,61.50
2022-08-22T13:05:40.993Z,61.00
2022-08-22T13:08:17.584Z,58.40
2022-08-22T13:10:50.873Z,59.20
2022-08-22T13:13:29.547Z,53.30
2022-08-22T13:16:07.611Z,53.00
2022-08-22T13:18:44.825Z,50.20
2022-08-22T13:21:17.684Z,47.70
2022-08-22T13:23:54.463Z,47.30
2022-08-22T13:26:32.856Z,50.70
2022-08-22T13:31:59.151Z,47.40
2022-08-22T13:34:40.013Z,47.40
2022-08-22T13:37:15.250Z,45.10
2022-08-22T13:39:47.221Z,48.70
2022-08-22T13:42:30.614Z,51.50
2022-08-22T13:45:04.685Z,50.30
2022-08-22T13:47:39.416Z,51.10
2022-08-22T13:50:14.668Z,49.60
2022-08-22T13:52:52.189Z,49.50
2022-08-22T13:55:29.698Z,50.30
2022-08-22T13:58:06.974Z,53.50
2022-08-22T14:01:15.458Z,53.60
2022-08-22T14:03:50.032Z,54.10
2022-08-22T14:06:41.443Z,53.40
2022-08-22T14:09:31.970Z,52.50
2022-08-22T14:12:11.801Z,52.30
2022-08-22T14:14:46.077Z,52.70
2022-08-22T14:17:17.859Z,53.10
2022-08-22T14:19:58.907Z,50.60
2022-08-22T14:22:35.013Z,50.70
2022-08-22T14:25:08.728Z,54.60
2022-08-22T14:27:40.053Z,55.50
2022-08-22T14:30:19.004Z,58.50
2022-08-22T14:32:51.434Z,60.60
2022-08-22T14:35:29.289Z,58.80
2022-08-22T14:38:17.511Z,62.50
2022-08-22T14:40:48.131Z,60.60
2022-08-22T14:43:40.443Z,60.60
2022-08-22T14:46:15.716Z,61.20
2022-08-22T14:48:49.833Z,65.30
2022-08-22T14:51:22.558Z,67.40
2022-08-22T14:53:51.438Z,66.00
2022-08-22T14:56:22.841Z,66.80
2022-08-22T14:58:54.580Z,62.50
2022-08-22T15:01:27.272Z,63.60
2022-08-22T15:04:05.033Z,65.20
2022-08-22T15:06:37.103Z,61.20
2022-08-22T15:09:08.479Z,62.80
2022-08-22T15:11:42.366Z,59.00
2022-08-22T15:14:23.213Z,60.30
2022-08-22T15:16:56.878Z,61.30
2022-08-22T15:19:28.421Z,58.30
2022-08-22T15:22:13.613Z,62.60
2022-08-22T15:24:44.421Z,63.90
2022-08-22T15:27:13.366Z,66.60
2022-08-22T15:29:50.862Z,71.20
2022-08-22T15:32:26.669Z,69.80
2022-08-22T15:35:03.638Z,71.20
2022-08-22T15:37:35.270Z,70.30
2022-08-22T15:40:12.651Z,67.40
2022-08-22T15:42:43.536Z,65.00
2022-08-22T15:45:22.425Z,61.60
2022-08-22T15:47:54.153Z,62.10
2022-08-22T15:50:35.916Z,62.80
2022-08-22T15:53:21.862Z,62.50
2022-08-22T15:56:28.123Z,62.50
2022-08-22T15:59:53.685Z,72.30
2022-08-22T16:02:35.084Z,73.90
2022-08-22T16:05:23.541Z,74.10
2022-08-22T16:08:02.853Z,75.10
2022-08-22T16:10:35.883Z,74.00
2022-08-22T16:13:30.971Z,76.10
2022-08-22T16:16:03.082Z,75.90
2022-08-22T16:19:08.629Z,73.70
2022-08-22T16:22:15.564Z,73.90
2022-08-22T16:25:17.245Z,75.90
2022-08-22T16:27:56.690Z,72.80
2022-08-22T16:30:35.963Z,76.20
2022-08-22T16:33:05.470Z,77.10
2022-08-22T16:36:24.406Z,77.60
2022-08-22T16:38:57.598Z,78.40
2022-08-22T16:41:31.814Z,79.50
2022-08-22T16:44:35.436Z,80.20
2022-08-22T16:47:37.677Z,80.50
2022-08-22T16:50:11.176Z,81.70
2022-08-22T16:52:54.731Z,82.60
2022-08-22T16:55:47.345Z,83.80
2022-08-22T16:58:58.889Z,82.90
2022-08-22T17:01:59.324Z,80.40
2022-08-22T17:04:39.459Z,78.60
2022-08-22T17:07:22.945Z,79.30
2022-08-22T17:10:26.298Z,84.10
2022-08-22T17:13:07.753Z,81.60
2022-08-22T17:15:44.980Z,83.20
2022-08-22T17:18:33.481Z,80.50
2022-08-22T17:21:10.469Z,81.40
2022-08-22T17:23:46.288Z,82.60
2022-08-22T17:26:22.100Z,82.40
2022-08-22T17:29:02.416Z,81.20
2022-08-22T17:31:36.702Z,84.50
2022-08-22T17:34:22.532Z,85.10
2022-08-22T17:37:05.021Z,84.30
2022-08-22T17:39:56.033Z,84.50
2022-08-22T17:42:56.270Z,86.00
2022-08-22T17:45:38.481Z,86.20
2022-08-22T17:48:13.275Z,85.80
2022-08-22T17:50:46.919Z,91.10
2022-08-22T17:53:28.329Z,88.80
2022-08-22T17:56:03.808Z,90.80
2022-08-22T17:58:43.859Z,88.20
2022-08-22T18:01:17.707Z,89.80
2022-08-22T18:03:53.112Z,90.80
2022-08-22T18:06:25.210Z,91.00
2022-08-22T18:11:51.413Z,92.70
2022-08-22T18:14:29.959Z,93.10
2022-08-22T18:17:01.059Z,93.70
2022-08-22T18:19:43.368Z,92.70
2022-08-22T18:22:20.458Z,93.00
2022-08-22T18:24:54.647Z,91.80
2022-08-22T18:27:35.031Z,92.30
2022-08-22T18:30:17.127Z,92.50
2022-08-22T18:32:57.354Z,91.90
2022-08-22T18:35:30.039Z,91.50
2022-08-22T18:38:19.155Z,92.30
2022-08-22T18:40:55.625Z,93.10
2022-08-22T18:43:37.754Z,93.10
2022-08-22T18:46:29.823Z,94.30
2022-08-22T18:49:15.016Z,94.10
2022-08-22T18:51:44.284Z,93.50
2022-08-22T18:54:34.597Z,92.80
2022-08-22T18:57:23.786Z,92.60
2022-08-22T19:00:14.632Z,91.40
2022-08-22T19:03:29.087Z,91.90
2022-08-22T19:06:25.271Z,91.30
2022-08-22T19:09:41.880Z,91.90
2022-08-22T19:12:24.077Z,90.80
2022-08-22T19:15:24.149Z,89.80
2022-08-22T19:18:15.311Z,88.40
2022-08-22T19:21:00.806Z,89.20
2022-08-22T19:23:47.475Z,88.60
2022-08-22T19:26:29.359Z,90.00
2022-08-22T19:28:59.422Z,90.80
2022-08-22T19:31:48.298Z,91.20
2022-08-22T19:34:36.260Z,92.00
2022-08-22T19:37:32.532Z,91.10
2022-08-22T19:40:05.321Z,90.90
2022-08-22T19:42:36.960Z,91.30
2022-08-22T19:45:19.932Z,92.90
2022-08-22T19:47:58.581Z,93.10
2022-08-22T19:50:34.278Z,94.00
2022-08-22T19:53:24.436Z,94.40
2022-08-22T19:56:06.269Z,93.70
2022-08-22T19:58:50.340Z,94.10
2022-08-22T20:01:40.156Z,93.40
2022-08-22T20:04:20.682Z,94.70
2022-08-22T20:06:59.094Z,95.60
2022-08-22T20:09:38.466Z,98.50
2022-08-22T20:12:15.945Z,99.90
2022-08-22T20:14:47.137Z,99.90
2022-08-22T20:17:31.535Z,99.90
2022-08-22T20:20:18.471Z,99.90
2022-08-22T20:22:54.295Z,99.90
2022-08-22T20:25:42.822Z,99.90
2022-08-22T20:28:37.152Z,99.90
2022-08-22T20:31:10.457Z,99.90
2022-08-22T20:33:42.045Z,99.90
2022-08-22T20:36:27.256Z,99.90
2022-08-22T20:39:03.997Z,99.90
2022-08-22T20:41:36.039Z,99.90
2022-08-22T20:44:12.688Z,99.90
2022-08-22T20:46:57.594Z,99.90
2022-08-22T20:49:30.015Z,99.90
2022-08-22T20:52:01.294Z,99.90
2022-08-22T20:54:33.272Z,99.90
2022-08-22T20:57:11.363Z,99.90
2022-08-22T20:59:41.895Z,99.90
2022-08-22T21:02:14.892Z,99.90
2022-08-22T21:04:52.705Z,99.90
2022-08-22T21:07:23.176Z,99.90
2022-08-22T21:10:22.999Z,99.90
2022-08-22T21:13:09.731Z,99.90
2022-08-22T21:15:40.574Z,99.90
2022-08-22T21:18:09.775Z,99.90
2022-08-22T21:20:39.661Z,99.90
2022-08-22T21:23:11.212Z,99.90
2022-08-22T21:25:54.218Z,99.90
2022-08-22T21:28:33.762Z,99.90
2022-08-22T21:31:14.446Z,99.90
2022-08-22T21:33:44.992Z,99.90
2022-08-22T21:36:16.541Z,99.90
2022-08-22T21:38:50.383Z,99.90
2022-08-22T21:41:28.446Z,99.90
2022-08-22T21:43:56.970Z,99.90
2022-08-22T21:46:26.980Z,99.90
2022-08-22T21:49:04.940Z,99.90
2022-08-22T21:51:41.982Z,99.90
2022-08-22T21:54:31.216Z,99.90
2022-08-22T21:57:20.279Z,99.90
2022-08-22T21:59:59.467Z,99.90
2022-08-22T22:02:37.555Z,99.90
2022-08-22T22:05:09.328Z,99.90
2022-08-22T22:07:40.148Z,99.90
2022-08-22T22:10:10.968Z,99.90
2022-08-22T22:12:42.261Z,99.90
2022-08-22T22:15:13.531Z,99.90
2022-08-22T22:17:41.850Z,99.90
2022-08-22T22:20:10.584Z,99.90
2022-08-22T22:22:46.472Z,99.90
2022-08-22T22:25:40.509Z,99.90
2022-08-22T22:28:08.888Z,99.90
2022-08-22T22:30:37.144Z,99.90
2022-08-22T22:33:05.413Z,99.90
2022-08-22T22:35:33.967Z,99.70
2022-08-22T22:38:02.372Z,98.60
2022-08-22T22:40:30.880Z,98.00
2022-08-22T22:42:59.269Z,97.30
2022-08-22T22:45:28.782Z,96.50
2022-08-22T22:47:57.034Z,97.10
2022-08-22T22:50:25.462Z,97.50
2022-08-22T22:52:54.210Z,96.30
2022-08-22T22:55:24.896Z,97.00
2022-08-22T22:57:58.740Z,96.60
2022-08-22T23:00:31.189Z,96.80
2022-08-22T23:03:00.806Z,97.00
2022-08-22T23:05:29.551Z,96.70
2022-08-22T23:07:58.217Z,96.80
2022-08-22T23:10:27.593Z,96.50
2022-08-22T23:12:55.764Z,96.40
2022-08-22T23:15:23.957Z,97.00
2022-08-22T23:17:53.548Z,96.90
2022-08-22T23:20:21.829Z,96.60
2022-08-22T23:22:50.490Z,95.50
2022-08-22T23:25:18.705Z,95.60
2022-08-22T23:27:48.827Z,95.60
2022-08-22T23:30:21.132Z,95.40
2022-08-22T23:32:49.305Z,95.10
2022-08-22T23:35:19.394Z,95.90
2022-08-22T23:37:47.512Z,95.50
2022-08-22T23:40:15.863Z,96.10
2022-08-22T23:42:44.233Z,96.20
2022-08-22T23:45:12.750Z,96.60
2022-08-22T23:47:41.041Z,95.90
2022-08-22T23:50:09.683Z,96.10
2022-08-22T23:52:39.265Z,96.40
2022-08-22T23:55:08.197Z,98.50
2022-08-22T23:57:38.734Z,98.50
